createdAt,value
2023-01-28T00:00:56.419Z,85.96
2023-01-28T00:03:24.501Z,86.36
2023-01-28T00:05:54.223Z,86.23
2023-01-28T00:08:22.189Z,86.17
2023-01-28T00:10:50.328Z,86.25
2023-01-28T00:13:18.293Z,85.82
2023-01-28T00:15:46.226Z,85.97
2023-01-28T00:18:14.595Z,86.07
2023-01-28T00:20:42.560Z,86.12
2023-01-28T00:23:10.439Z,85.69
2023-01-28T00:25:41.037Z,85.83
2023-01-28T00:28:10.480Z,85.48
2023-01-28T00:30:39.185Z,85.45
2023-01-28T00:33:07.601Z,85.85
2023-01-28T00:35:35.603Z,85.99
2023-01-28T00:38:06.462Z,85.84
2023-01-28T00:40:34.676Z,86.24
2023-01-28T00:43:02.698Z,86.27
2023-01-28T00:45:30.643Z,86.43
2023-01-28T00:47:58.627Z,86.21
2023-01-28T00:50:26.584Z,86.32
2023-01-28T00:52:54.965Z,86.18
2023-01-28T00:55:23.012Z,86.35
2023-01-28T00:57:51.554Z,86.78
2023-01-28T01:00:21.832Z,86.69
2023-01-28T01:02:50.336Z,86.71
2023-01-28T01:05:18.629Z,86.92
2023-01-28T01:07:46.562Z,86.76
2023-01-28T01:10:18.763Z,86.69
2023-01-28T01:12:48.232Z,86.73
2023-01-28T01:15:17.836Z,86.79
2023-01-28T01:17:48.574Z,86.59
2023-01-28T01:20:21.941Z,86.49
2023-01-28T01:22:50.118Z,86.39
2023-01-28T01:25:19.075Z,86.09
2023-01-28T01:27:50.205Z,86.53
2023-01-28T01:30:21.438Z,86.51
2023-01-28T01:32:49.592Z,86.25
2023-01-28T01:35:18.080Z,86.12
2023-01-28T01:37:46.375Z,85.69
2023-01-28T01:40:14.349Z,85.70
2023-01-28T01:42:42.489Z,85.01
2023-01-28T01:45:19.682Z,83.73
2023-01-28T01:47:58.386Z,83.03
2023-01-28T01:50:34.780Z,82.68
2023-01-28T01:53:17.217Z,82.94
2023-01-28T01:55:50.060Z,83.02
2023-01-28T01:58:22.779Z,83.04
2023-01-28T02:00:50.740Z,83.19
2023-01-28T02:03:23.688Z,83.12
2023-01-28T02:05:51.734Z,83.67
2023-01-28T02:08:22.416Z,83.83
2023-01-28T02:10:57.317Z,84.16
2023-01-28T02:13:34.912Z,84.16
2023-01-28T02:16:04.489Z,84.28
2023-01-28T02:18:33.502Z,84.56
2023-01-28T02:21:13.406Z,84.49
2023-01-28T02:24:09.796Z,84.63
2023-01-28T02:26:55.082Z,84.59
2023-01-28T02:29:22.835Z,84.84
2023-01-28T02:31:57.326Z,84.96
2023-01-28T02:34:28.381Z,85.39
2023-01-28T02:37:13.752Z,85.85
2023-01-28T02:39:55.135Z,84.89
2023-01-28T02:42:29.919Z,84.89
2023-01-28T02:44:57.760Z,85.35
2023-01-28T02:47:46.099Z,85.43
2023-01-28T02:50:17.472Z,84.02
2023-01-28T02:53:37.477Z,83.91
2023-01-28T02:56:29.485Z,85.09
2023-01-28T02:59:35.346Z,85.97
2023-01-28T03:02:17.067Z,86.58
2023-01-28T03:05:31.619Z,86.80
2023-01-28T03:08:00.222Z,86.90
2023-01-28T03:10:29.298Z,86.52
2023-01-28T03:13:17.139Z,85.57
2023-01-28T03:16:06.791Z,85.54
2023-01-28T03:19:08.576Z,85.95
2023-01-28T03:22:03.519Z,85.96
2023-01-28T03:25:01.202Z,85.95
2023-01-28T03:28:05.749Z,85.71
2023-01-28T03:31:04.266Z,85.57
2023-01-28T03:34:02.104Z,85.78
2023-01-28T03:36:49.674Z,85.37
2023-01-28T03:39:37.755Z,85.72
2023-01-28T03:42:13.011Z,85.34
2023-01-28T03:45:05.313Z,85.54
2023-01-28T03:47:34.126Z,85.58
2023-01-28T03:50:06.736Z,85.07
2023-01-28T03:52:41.429Z,84.89
2023-01-28T03:55:33.137Z,84.37
2023-01-28T03:58:00.886Z,83.81
2023-01-28T04:00:28.785Z,83.81
2023-01-28T04:02:57.529Z,83.94
2023-01-28T04:05:25.999Z,83.43
2023-01-28T04:07:57.570Z,83.12
2023-01-28T04:10:44.060Z,83.04
2023-01-28T04:13:23.531Z,83.15
2023-01-28T04:15:51.745Z,83.43
2023-01-28T04:18:27.165Z,83.23
2023-01-28T04:20:56.875Z,83.39
2023-01-28T04:23:24.762Z,83.55
2023-01-28T04:25:53.159Z,83.44
2023-01-28T04:28:22.444Z,83.64
2023-01-28T04:30:51.948Z,83.56
2023-01-28T04:33:52.354Z,83.64
2023-01-28T04:36:45.717Z,84.12
2023-01-28T04:39:41.624Z,84.32
2023-01-28T04:42:21.829Z,84.68
2023-01-28T04:45:08.783Z,84.73
2023-01-28T04:47:50.554Z,84.75
2023-01-28T04:50:28.073Z,84.97
2023-01-28T04:53:19.945Z,85.29
2023-01-28T04:55:58.654Z,85.30
2023-01-28T04:58:27.718Z,85.63
2023-01-28T05:01:00.852Z,85.67
2023-01-28T05:03:28.884Z,85.24
2023-01-28T05:05:56.967Z,84.71
2023-01-28T05:08:36.669Z,84.77
2023-01-28T05:11:04.716Z,84.70
2023-01-28T05:13:32.652Z,84.68
2023-01-28T05:16:01.030Z,84.89
2023-01-28T05:18:28.928Z,84.47
2023-01-28T05:21:07.113Z,84.61
2023-01-28T05:23:37.232Z,84.62
2023-01-28T05:26:05.294Z,84.41
2023-01-28T05:28:33.971Z,84.17
2023-01-28T05:31:06.868Z,84.20
2023-01-28T05:33:34.963Z,83.97
2023-01-28T05:36:05.308Z,83.89
2023-01-28T05:38:34.169Z,84.34
2023-01-28T05:41:02.095Z,84.53
2023-01-28T05:43:29.963Z,84.63
2023-01-28T05:46:15.971Z,84.90
2023-01-28T05:49:02.481Z,85.23
2023-01-28T05:51:50.230Z,85.00
2023-01-28T05:54:21.185Z,85.22
2023-01-28T05:56:49.473Z,84.70
2023-01-28T05:59:18.403Z,84.97
2023-01-28T06:01:48.450Z,84.33
2023-01-28T06:04:18.906Z,84.72
2023-01-28T06:06:47.228Z,83.96
2023-01-28T06:09:15.344Z,84.11
2023-01-28T06:11:44.366Z,84.47
2023-01-28T06:14:12.370Z,84.40
2023-01-28T06:16:53.242Z,83.85
2023-01-28T06:19:27.366Z,84.32
2023-01-28T06:21:55.309Z,84.48
2023-01-28T06:24:23.327Z,84.26
2023-01-28T06:26:54.318Z,84.49
2023-01-28T06:29:22.644Z,84.51
2023-01-28T06:31:51.224Z,84.62
2023-01-28T06:34:19.196Z,84.75
2023-01-28T06:36:48.089Z,84.93
2023-01-28T06:39:15.920Z,85.26
2023-01-28T06:41:43.843Z,84.89
2023-01-28T06:44:11.739Z,85.20
2023-01-28T06:46:39.642Z,84.57
2023-01-28T06:49:07.540Z,84.55
2023-01-28T06:51:35.464Z,84.38
2023-01-28T06:54:03.335Z,84.14
2023-01-28T06:56:31.191Z,84.13
2023-01-28T06:58:59.044Z,84.11
2023-01-28T07:01:26.956Z,84.34
2023-01-28T07:03:54.806Z,84.25
2023-01-28T07:06:22.655Z,84.22
2023-01-28T07:08:50.555Z,84.01
2023-01-28T07:11:18.435Z,84.26
2023-01-28T07:13:47.504Z,84.37
2023-01-28T07:16:15.417Z,84.77
2023-01-28T07:18:43.299Z,84.95
2023-01-28T07:21:11.249Z,85.02
2023-01-28T07:23:40.024Z,85.08
2023-01-28T07:26:07.910Z,85.19
2023-01-28T07:28:35.980Z,85.05
2023-01-28T07:31:03.928Z,85.54
2023-01-28T07:33:31.804Z,84.96
2023-01-28T07:35:59.636Z,85.21
2023-01-28T07:38:27.563Z,84.91
2023-01-28T07:40:57.351Z,85.65
2023-01-28T07:43:25.899Z,85.38
2023-01-28T07:45:53.659Z,85.44
2023-01-28T07:48:21.579Z,85.66
2023-01-28T07:50:51.205Z,85.86
2023-01-28T07:53:20.117Z,85.62
2023-01-28T07:55:47.967Z,85.99
2023-01-28T07:58:15.939Z,86.32
2023-01-28T08:00:44.030Z,85.82
2023-01-28T08:03:15.693Z,85.91
2023-01-28T08:05:47.931Z,85.87
2023-01-28T08:08:16.602Z,86.03
2023-01-28T08:10:45.211Z,86.08
2023-01-28T08:13:14.659Z,85.67
2023-01-28T08:15:43.024Z,85.66
2023-01-28T08:18:13.332Z,86.19
2023-01-28T08:20:43.544Z,85.85
2023-01-28T08:23:16.902Z,86.11
2023-01-28T08:25:44.996Z,86.14
2023-01-28T08:28:13.754Z,86.24
2023-01-28T08:30:42.302Z,86.33
2023-01-28T08:33:12.983Z,86.54
2023-01-28T08:35:41.112Z,86.34
2023-01-28T08:38:10.545Z,86.19
2023-01-28T08:40:38.434Z,85.74
2023-01-28T08:43:06.973Z,85.82
2023-01-28T08:45:34.811Z,86.66
2023-01-28T08:48:04.998Z,85.89
2023-01-28T08:50:35.876Z,86.26
2023-01-28T08:53:06.523Z,86.29
2023-01-28T08:55:35.028Z,85.82
2023-01-28T08:58:04.314Z,86.24
2023-01-28T09:00:32.301Z,85.77
2023-01-28T09:03:00.404Z,85.58
2023-01-28T09:05:28.536Z,85.44
2023-01-28T09:07:56.988Z,85.22
2023-01-28T09:10:25.204Z,84.76
2023-01-28T09:12:53.539Z,84.32
2023-01-28T09:15:21.922Z,83.90
2023-01-28T09:17:50.140Z,83.56
2023-01-28T09:20:18.696Z,83.15
2023-01-28T09:22:46.874Z,83.53
2023-01-28T09:25:14.971Z,83.54
2023-01-28T09:27:43.812Z,83.84
2023-01-28T09:30:14.091Z,83.24
2023-01-28T09:32:42.384Z,83.16
2023-01-28T09:35:11.069Z,83.02
2023-01-28T09:37:38.862Z,82.99
2023-01-28T09:40:07.448Z,81.93
2023-01-28T09:43:04.363Z,82.19
2023-01-28T09:45:45.853Z,82.44
2023-01-28T09:48:21.572Z,82.08
2023-01-28T09:50:54.745Z,81.86
2023-01-28T09:53:27.654Z,81.89
2023-01-28T09:56:01.905Z,82.07
2023-01-28T09:58:30.181Z,81.89
2023-01-28T10:01:39.922Z,80.71
2023-01-28T10:04:14.001Z,81.43
2023-01-28T10:07:04.967Z,81.41
2023-01-28T10:10:00.082Z,81.44
2023-01-28T10:12:58.949Z,82.22
2023-01-28T10:15:43.379Z,82.23
2023-01-28T10:18:17.613Z,81.63
2023-01-28T10:20:55.745Z,80.99
2023-01-28T10:23:44.504Z,81.26
2023-01-28T10:26:24.829Z,81.32
2023-01-28T10:28:59.889Z,80.88
2023-01-28T10:31:31.227Z,80.47
2023-01-28T10:33:59.624Z,81.19
2023-01-28T10:36:27.768Z,81.60
2023-01-28T10:38:55.789Z,81.32
2023-01-28T10:41:25.755Z,80.84
2023-01-28T10:43:53.658Z,80.95
2023-01-28T10:46:26.856Z,80.57
2023-01-28T10:49:27.742Z,81.37
2023-01-28T10:51:55.607Z,81.13
2023-01-28T10:54:26.021Z,81.11
2023-01-28T10:57:03.067Z,81.24
2023-01-28T10:59:32.818Z,80.84
2023-01-28T11:02:04.252Z,81.19
2023-01-28T11:04:34.426Z,80.09
2023-01-28T11:07:19.093Z,80.84
2023-01-28T11:09:49.999Z,80.97
2023-01-28T11:12:28.740Z,80.86
2023-01-28T11:15:05.609Z,81.81
2023-01-28T11:17:38.454Z,81.72
2023-01-28T11:20:24.412Z,80.67
2023-01-28T11:22:52.846Z,81.45
2023-01-28T11:25:38.541Z,81.55
2023-01-28T11:28:15.972Z,82.53
2023-01-28T11:30:44.109Z,82.39
2023-01-28T11:33:18.070Z,82.47
2023-01-28T11:36:15.825Z,82.22
2023-01-28T11:38:51.618Z,81.53
2023-01-28T11:41:49.539Z,80.74
2023-01-28T11:44:27.677Z,80.36
2023-01-28T11:47:07.823Z,80.24
2023-01-28T11:49:55.293Z,79.65
2023-01-28T11:52:48.699Z,80.17
2023-01-28T11:55:33.373Z,80.11
2023-01-28T11:58:01.175Z,80.70
2023-01-28T12:01:06.642Z,79.87
2023-01-28T12:03:41.071Z,79.78
2023-01-28T12:06:17.987Z,79.46
2023-01-28T12:08:53.713Z,79.59
2023-01-28T12:12:12.464Z,78.95
2023-01-28T12:14:58.228Z,78.98
2023-01-28T12:17:45.008Z,79.10
2023-01-28T12:20:13.114Z,79.07
2023-01-28T12:22:58.416Z,78.76
2023-01-28T12:25:50.379Z,78.26
2023-01-28T12:28:30.792Z,78.64
2023-01-28T12:31:21.657Z,78.57
2023-01-28T12:34:27.506Z,78.53
2023-01-28T12:37:10.528Z,78.48
2023-01-28T12:40:03.177Z,78.49
2023-01-28T12:42:46.623Z,78.46
2023-01-28T12:45:38.760Z,78.67
2023-01-28T12:48:14.676Z,77.81
2023-01-28T12:50:49.971Z,77.46
2023-01-28T12:53:25.312Z,78.01
2023-01-28T12:56:09.944Z,78.25
2023-01-28T12:58:53.527Z,77.76
2023-01-28T13:01:30.044Z,77.74
2023-01-28T13:04:10.196Z,77.85
2023-01-28T13:07:06.124Z,77.70
2023-01-28T13:09:37.783Z,78.35
2023-01-28T13:12:06.499Z,78.60
2023-01-28T13:14:35.536Z,78.23
2023-01-28T13:17:24.734Z,78.66
2023-01-28T13:19:52.628Z,78.42
2023-01-28T13:22:37.713Z,78.43
2023-01-28T13:25:27.850Z,78.45
2023-01-28T13:28:06.648Z,78.35
2023-01-28T13:30:47.646Z,77.85
2023-01-28T13:33:39.511Z,78.21
2023-01-28T13:36:42.199Z,78.17
2023-01-28T13:39:20.974Z,77.82
2023-01-28T13:41:51.034Z,78.10
2023-01-28T13:44:28.086Z,78.49
2023-01-28T13:47:16.414Z,77.70
2023-01-28T13:49:47.947Z,77.64
2023-01-28T13:52:20.478Z,77.69
2023-01-28T13:54:51.376Z,77.90
2023-01-28T13:58:01.090Z,78.33
2023-01-28T14:00:45.119Z,78.35
2023-01-28T14:03:34.525Z,79.04
2023-01-28T14:06:20.559Z,79.48
2023-01-28T14:09:25.286Z,79.64
2023-01-28T14:12:20.985Z,79.48
2023-01-28T14:15:32.273Z,79.44
2023-01-28T14:18:01.191Z,79.32
2023-01-28T14:20:43.796Z,78.95
2023-01-28T14:23:22.049Z,78.70
2023-01-28T14:25:52.668Z,79.01
2023-01-28T14:28:46.349Z,79.58
2023-01-28T14:31:25.370Z,79.68
2023-01-28T14:33:54.215Z,79.51
2023-01-28T14:36:23.247Z,80.14
2023-01-28T14:38:51.303Z,80.41
2023-01-28T14:41:26.643Z,80.06
2023-01-28T14:43:56.083Z,80.06
2023-01-28T14:46:29.894Z,80.42
2023-01-28T14:49:27.017Z,80.25
2023-01-28T14:52:26.452Z,80.13
2023-01-28T14:55:11.699Z,80.10
2023-01-28T14:57:54.049Z,80.46
2023-01-28T15:00:25.220Z,80.49
2023-01-28T15:02:53.187Z,80.16
2023-01-28T15:05:32.052Z,80.45
2023-01-28T15:08:00.911Z,80.40
2023-01-28T15:10:33.233Z,80.66
2023-01-28T15:13:08.418Z,81.10
2023-01-28T15:15:39.877Z,81.23
2023-01-28T15:18:25.857Z,81.56
2023-01-28T15:20:55.980Z,81.44
2023-01-28T15:23:33.291Z,81.57
2023-01-28T15:26:13.530Z,82.05
2023-01-28T15:28:43.470Z,81.71
2023-01-28T15:31:23.645Z,81.91
2023-01-28T15:34:06.001Z,82.14
2023-01-28T15:36:34.280Z,82.28
2023-01-28T15:39:03.673Z,82.48
2023-01-28T15:41:47.647Z,82.37
2023-01-28T15:44:57.276Z,82.22
2023-01-28T15:47:28.881Z,82.09
2023-01-28T15:50:01.733Z,82.15
2023-01-28T15:52:34.968Z,82.24
2023-01-28T15:55:03.455Z,82.30
2023-01-28T15:57:35.320Z,82.21
2023-01-28T16:00:14.007Z,82.29
2023-01-28T16:02:46.685Z,81.87
2023-01-28T16:05:38.248Z,81.72
2023-01-28T16:08:27.639Z,81.93
2023-01-28T16:10:57.188Z,82.20
2023-01-28T16:13:28.416Z,81.59
2023-01-28T16:15:57.924Z,82.24
2023-01-28T16:18:40.626Z,81.78
2023-01-28T16:21:12.688Z,81.80
2023-01-28T16:23:40.844Z,81.88
2023-01-28T16:26:22.611Z,82.15
2023-01-28T16:28:51.304Z,82.10
2023-01-28T16:31:21.042Z,82.29
2023-01-28T16:33:49.190Z,82.13
2023-01-28T16:36:21.668Z,82.14
2023-01-28T16:38:50.771Z,82.42
2023-01-28T16:41:29.511Z,82.36
2023-01-28T16:44:01.199Z,82.54
2023-01-28T16:46:29.333Z,82.69
2023-01-28T16:48:57.805Z,82.84
2023-01-28T16:51:26.376Z,82.78
2023-01-28T16:53:54.792Z,83.12
2023-01-28T16:56:45.945Z,82.96
2023-01-28T16:59:17.159Z,82.91
2023-01-28T17:01:46.725Z,83.32
2023-01-28T17:04:16.428Z,83.43
2023-01-28T17:06:45.319Z,83.52
2023-01-28T17:09:14.446Z,83.75
2023-01-28T17:11:42.575Z,83.85
2023-01-28T17:14:11.543Z,83.97
2023-01-28T17:16:39.620Z,84.28
2023-01-28T17:19:07.517Z,84.38
2023-01-28T17:21:35.494Z,84.35
2023-01-28T17:24:05.257Z,84.65
2023-01-28T17:26:35.480Z,84.46
2023-01-28T17:29:06.428Z,84.62
2023-01-28T17:31:35.118Z,84.62
2023-01-28T17:34:07.023Z,84.55
2023-01-28T17:36:35.220Z,84.72
2023-01-28T17:39:04.066Z,84.75
2023-01-28T17:41:34.107Z,84.71
2023-01-28T17:44:04.765Z,84.79
2023-01-28T17:46:32.891Z,84.97
2023-01-28T17:49:03.155Z,85.05
2023-01-28T17:51:31.474Z,85.29
2023-01-28T17:53:59.797Z,85.31
2023-01-28T17:56:29.179Z,85.33
2023-01-28T17:59:06.568Z,85.34
2023-01-28T18:01:37.432Z,85.44
2023-01-28T18:04:07.483Z,85.43
2023-01-28T18:06:36.515Z,85.31
2023-01-28T18:09:05.723Z,85.40
2023-01-28T18:11:34.493Z,85.23
2023-01-28T18:14:28.825Z,85.33
2023-01-28T18:16:58.874Z,85.24
2023-01-28T18:19:27.041Z,85.22
2023-01-28T18:21:55.203Z,85.15
2023-01-28T18:24:25.019Z,85.02
2023-01-28T18:26:55.385Z,84.99
2023-01-28T18:29:24.249Z,85.26
2023-01-28T18:31:57.288Z,84.79
2023-01-28T18:34:29.227Z,84.84
2023-01-28T18:36:58.274Z,84.71
2023-01-28T18:39:31.929Z,84.64
2023-01-28T18:42:00.369Z,84.74
2023-01-28T18:44:53.311Z,84.49
2023-01-28T18:47:22.628Z,84.49
2023-01-28T18:49:50.597Z,84.77
2023-01-28T18:52:18.516Z,84.91
2023-01-28T18:54:58.790Z,84.88
2023-01-28T18:57:26.692Z,84.96
2023-01-28T18:59:54.553Z,84.61
2023-01-28T19:02:23.577Z,84.64
2023-01-28T19:04:52.588Z,84.77
2023-01-28T19:07:24.406Z,84.91
2023-01-28T19:09:52.368Z,84.78
2023-01-28T19:12:22.411Z,84.86
2023-01-28T19:14:52.596Z,84.96
2023-01-28T19:17:20.628Z,85.23
2023-01-28T19:19:51.339Z,85.02
2023-01-28T19:22:19.322Z,85.11
2023-01-28T19:24:47.211Z,85.16
2023-01-28T19:27:15.221Z,85.09
2023-01-28T19:29:43.348Z,85.04
2023-01-28T19:32:11.306Z,85.23
2023-01-28T19:34:39.158Z,85.50
2023-01-28T19:37:07.570Z,85.45
2023-01-28T19:39:35.479Z,85.58
2023-01-28T19:42:04.418Z,85.76
2023-01-28T19:44:34.008Z,85.68
2023-01-28T19:47:05.873Z,85.34
2023-01-28T19:49:34.470Z,85.56
2023-01-28T19:52:09.058Z,85.40
2023-01-28T19:54:40.031Z,85.73
2023-01-28T19:57:07.931Z,85.59
2023-01-28T19:59:35.873Z,85.83
2023-01-28T20:02:03.830Z,85.65
2023-01-28T20:04:31.727Z,85.64
2023-01-28T20:06:59.683Z,85.57
2023-01-28T20:09:27.926Z,85.79
2023-01-28T20:11:55.930Z,85.76
2023-01-28T20:14:23.966Z,86.00
2023-01-28T20:16:52.786Z,85.94
2023-01-28T20:19:22.693Z,86.01
2023-01-28T20:21:52.506Z,86.24
2023-01-28T20:24:20.465Z,86.02
2023-01-28T20:26:48.465Z,85.90
2023-01-28T20:29:18.480Z,86.17
2023-01-28T20:31:56.869Z,86.11
2023-01-28T20:34:33.922Z,86.12
2023-01-28T20:37:03.273Z,86.38
2023-01-28T20:39:31.130Z,86.22
2023-01-28T20:42:02.932Z,86.42
2023-01-28T20:44:32.175Z,86.48
2023-01-28T20:47:00.190Z,86.23
2023-01-28T20:49:28.475Z,86.14
2023-01-28T20:51:58.556Z,86.32
2023-01-28T20:54:26.455Z,86.38
2023-01-28T20:56:54.541Z,86.32
2023-01-28T20:59:24.005Z,86.46
2023-01-28T21:01:53.099Z,86.31
2023-01-28T21:04:21.025Z,86.38
2023-01-28T21:06:48.940Z,86.53
2023-01-28T21:09:16.827Z,86.58
2023-01-28T21:11:44.662Z,86.28
2023-01-28T21:14:16.796Z,86.63
2023-01-28T21:16:44.995Z,86.33
2023-01-28T21:19:12.860Z,86.61
2023-01-28T21:21:42.960Z,86.65
2023-01-28T21:24:11.912Z,86.82
2023-01-28T21:26:40.040Z,86.74
2023-01-28T21:29:09.077Z,86.96
2023-01-28T21:31:37.254Z,86.97
2023-01-28T21:34:05.092Z,86.53
2023-01-28T21:36:37.131Z,86.42
2023-01-28T21:39:05.935Z,86.56
2023-01-28T21:41:36.614Z,86.59
2023-01-28T21:44:06.379Z,86.83
2023-01-28T21:46:37.365Z,86.77
2023-01-28T21:49:05.562Z,87.01
2023-01-28T21:51:36.305Z,86.71
2023-01-28T21:54:06.141Z,86.69
2023-01-28T21:56:34.205Z,86.63
2023-01-28T21:59:22.358Z,86.82
2023-01-28T22:01:50.225Z,86.90
2023-01-28T22:04:20.137Z,87.19
2023-01-28T22:06:48.100Z,86.98
2023-01-28T22:09:42.466Z,87.03
2023-01-28T22:12:11.706Z,86.95
2023-01-28T22:14:40.316Z,87.26
2023-01-28T22:17:11.614Z,86.88
2023-01-28T22:19:39.992Z,86.91
2023-01-28T22:22:17.364Z,87.16
2023-01-28T22:24:45.380Z,87.32
2023-01-28T22:27:14.111Z,87.21
2023-01-28T22:29:41.961Z,87.12
2023-01-28T22:32:09.956Z,87.17
2023-01-28T22:34:38.598Z,87.37
2023-01-28T22:37:10.455Z,87.30
2023-01-28T22:39:43.638Z,87.35
2023-01-28T22:42:11.459Z,87.35
2023-01-28T22:44:39.444Z,87.20
2023-01-28T22:47:08.619Z,87.36
2023-01-28T22:49:38.832Z,87.57
2023-01-28T22:52:06.631Z,87.71
2023-01-28T22:54:35.531Z,87.66
2023-01-28T22:57:06.237Z,87.64
2023-01-28T22:59:34.243Z,87.62
2023-01-28T23:02:02.225Z,87.61
2023-01-28T23:04:30.266Z,87.84
2023-01-28T23:07:01.253Z,87.64
2023-01-28T23:09:29.346Z,87.71
2023-01-28T23:11:58.669Z,87.78
2023-01-28T23:14:45.858Z,87.83
2023-01-28T23:17:32.885Z,87.66
2023-01-28T23:20:45.108Z,87.52
2023-01-28T23:23:36.022Z,87.49
2023-01-28T23:26:06.210Z,87.76
2023-01-28T23:28:34.836Z,87.80
2023-01-28T23:31:02.887Z,87.78
2023-01-28T23:33:31.345Z,87.87
2023-01-28T23:35:59.305Z,87.56
2023-01-28T23:38:28.506Z,87.88
2023-01-28T23:40:56.373Z,87.98
2023-01-28T23:43:24.260Z,87.88
2023-01-28T23:45:54.252Z,87.85
2023-01-28T23:48:23.389Z,87.77
2023-01-28T23:50:55.219Z,87.91
2023-01-28T23:53:23.421Z,87.71
2023-01-28T23:56:09.738Z,87.97
2023-01-28T23:58:43.634Z,88.03
